In Rescue
 
Open Full Screen Window  High Contrast Mode
Wind Gusting 15 knots
10
May 19, 2019 12:57 PM EDT
Present Weather: Light Rain
Weather Information
Wind Direction
  040 °
Wind Speed
  10 kt (12 mph)
Wind Gust
  15 kt (17 mph)
Altimeter
29.76 in
Visibility
5 SM
Temperature
06° C
43° F
Dewpoint
05° C
41° F
Humidity
93%
1hr Rain Fall
00.09 in.
24hr Rain Fall
01.10 in.
Sky Condition
Overcast @ 400 ft
LIFR

METAR KERY 191657Z AUTO 04010G15KT 5SM -RA OVC004 06/05 A2976 RMK AO2 P0009 T00600047

FAA Disclaimer: The data displayed is for advisory purposes only and is not to be used for flight planning or operations.